Terminal Aerodrome Forecast
Issued by NWS

Home | Current Version | Previous Version | Graphics & Text | Print | Product List | Glossary On
Versions: 1 2 3 4 5 6 7 8 9 10 11 12 13 14 15 16 17 18 19 20 21 22 23 24 25 26
283
FTUS43 KLSX 200631 AAA
TAFSUS
TAF AMD
KSUS 200631Z 2007/2106 00000KT 1/4SM FG VV002
     FM201600 16005KT 1SM BR OVC003
     FM201800 16008KT 5SM BR OVC008
     FM202000 16009KT P6SM OVC015=

USA.gov is the U.S. government's official web portal to all federal, state and local government web resources and services.